sensor_id;sensor_type;location;lat;lon;timestamp;temperature;humidity
21563;DHT22;10942;47.894;11.424;2023-04-24T00:07:30;9.70;99.90
21563;DHT22;10942;47.894;11.424;2023-04-24T00:09:55;9.70;99.90
21563;DHT22;10942;47.894;11.424;2023-04-24T00:12:21;9.80;99.90
21563;DHT22;10942;47.894;11.424;2023-04-24T00:14:47;10.00;99.90
21563;DHT22;10942;47.894;11.424;2023-04-24T00:17:13;10.00;99.90
21563;DHT22;10942;47.894;11.424;2023-04-24T00:19:39;10.10;99.90
21563;DHT22;10942;47.894;11.424;2023-04-24T00:22:04;10.20;99.90
21563;DHT22;10942;47.894;11.424;2023-04-24T00:24:30;10.10;99.90
21563;DHT22;10942;47.894;11.424;2023-04-24T00:26:56;10.20;99.90
21563;DHT22;10942;47.894;11.424;2023-04-24T00:29:22;10.20;99.90
21563;DHT22;10942;47.894;11.424;2023-04-24T00:31:48;10.20;99.90
21563;DHT22;10942;47.894;11.424;2023-04-24T00:34:14;10.20;99.90
21563;DHT22;10942;47.894;11.424;2023-04-24T00:36:40;10.30;99.90
21563;DHT22;10942;47.894;11.424;2023-04-24T00:39:06;10.20;99.90
21563;DHT22;10942;47.894;11.424;2023-04-24T00:41:34;10.20;99.90
21563;DHT22;10942;47.894;11.424;2023-04-24T00:44:00;10.20;99.90
21563;DHT22;10942;47.894;11.424;2023-04-24T00:46:25;10.30;99.90
21563;DHT22;10942;47.894;11.424;2023-04-24T00:48:51;10.20;99.90
21563;DHT22;10942;47.894;11.424;2023-04-24T00:51:17;10.30;99.90
21563;DHT22;10942;47.894;11.424;2023-04-24T00:53:43;10.30;99.90
21563;DHT22;10942;47.894;11.424;2023-04-24T00:56:09;10.30;99.90
21563;DHT22;10942;47.894;11.424;2023-04-24T00:58:35;10.30;99.90
21563;DHT22;10942;47.894;11.424;2023-04-24T01:01:02;10.30;99.90
21563;DHT22;10942;47.894;11.424;2023-04-24T01:03:29;10.30;99.90
21563;DHT22;10942;47.894;11.424;2023-04-24T01:05:57;10.30;99.90
21563;DHT22;10942;47.894;11.424;2023-04-24T01:08:24;10.20;99.90
21563;DHT22;10942;47.894;11.424;2023-04-24T01:10:53;10.30;99.90
21563;DHT22;10942;47.894;11.424;2023-04-24T01:13:19;10.20;99.90
21563;DHT22;10942;47.894;11.424;2023-04-24T01:15:46;10.20;99.90
21563;DHT22;10942;47.894;11.424;2023-04-24T01:18:13;10.30;99.90
21563;DHT22;10942;47.894;11.424;2023-04-24T01:20:42;10.20;99.90
21563;DHT22;10942;47.894;11.424;2023-04-24T01:23:10;10.20;99.90
21563;DHT22;10942;47.894;11.424;2023-04-24T01:25:36;10.20;99.90
21563;DHT22;10942;47.894;11.424;2023-04-24T01:28:02;10.20;99.90
21563;DHT22;10942;47.894;11.424;2023-04-24T01:30:29;10.20;99.90
21563;DHT22;10942;47.894;11.424;2023-04-24T01:32:57;10.20;99.90
21563;DHT22;10942;47.894;11.424;2023-04-24T01:35:24;10.10;99.90
21563;DHT22;10942;47.894;11.424;2023-04-24T01:37:50;10.10;99.90
21563;DHT22;10942;47.894;11.424;2023-04-24T01:40:16;10.20;99.90
21563;DHT22;10942;47.894;11.424;2023-04-24T01:42:41;10.10;99.90
21563;DHT22;10942;47.894;11.424;2023-04-24T01:45:10;10.10;99.90
21563;DHT22;10942;47.894;11.424;2023-04-24T01:47:36;10.10;99.90
21563;DHT22;10942;47.894;11.424;2023-04-24T01:50:02;10.00;99.90
21563;DHT22;10942;47.894;11.424;2023-04-24T01:52:28;10.00;99.90
21563;DHT22;10942;47.894;11.424;2023-04-24T01:54:58;10.00;99.90
21563;DHT22;10942;47.894;11.424;2023-04-24T01:57:25;10.10;99.90
21563;DHT22;10942;47.894;11.424;2023-04-24T01:59:51;10.10;99.90
21563;DHT22;10942;47.894;11.424;2023-04-24T02:02:17;10.10;99.90
21563;DHT22;10942;47.894;11.424;2023-04-24T02:04:43;10.00;99.90
21563;DHT22;10942;47.894;11.424;2023-04-24T02:07:09;10.00;99.90
21563;DHT22;10942;47.894;11.424;2023-04-24T02:09:34;10.00;99.90
21563;DHT22;10942;47.894;11.424;2023-04-24T02:12:00;10.00;99.90
21563;DHT22;10942;47.894;11.424;2023-04-24T02:14:26;10.00;99.90
21563;DHT22;10942;47.894;11.424;2023-04-24T02:16:52;10.00;99.90
21563;DHT22;10942;47.894;11.424;2023-04-24T02:19:19;10.00;99.90
21563;DHT22;10942;47.894;11.424;2023-04-24T02:21:44;10.00;99.90
21563;DHT22;10942;47.894;11.424;2023-04-24T02:24:10;10.00;99.90
21563;DHT22;10942;47.894;11.424;2023-04-24T02:26:36;10.10;99.90
21563;DHT22;10942;47.894;11.424;2023-04-24T02:29:02;9.90;99.90
21563;DHT22;10942;47.894;11.424;2023-04-24T02:31:27;9.80;99.90
21563;DHT22;10942;47.894;11.424;2023-04-24T02:33:53;10.00;99.90
21563;DHT22;10942;47.894;11.424;2023-04-24T02:36:19;9.90;99.90
21563;DHT22;10942;47.894;11.424;2023-04-24T02:38:44;10.10;99.90
21563;DHT22;10942;47.894;11.424;2023-04-24T02:41:12;10.00;99.90
21563;DHT22;10942;47.894;11.424;2023-04-24T02:43:37;9.90;99.90
21563;DHT22;10942;47.894;11.424;2023-04-24T02:46:03;9.90;99.90
21563;DHT22;10942;47.894;11.424;2023-04-24T02:48:29;9.90;99.90
21563;DHT22;10942;47.894;11.424;2023-04-24T02:50:55;9.90;99.90
21563;DHT22;10942;47.894;11.424;2023-04-24T02:53:21;9.90;99.90
21563;DHT22;10942;47.894;11.424;2023-04-24T02:55:47;9.90;99.90
21563;DHT22;10942;47.894;11.424;2023-04-24T02:58:12;9.90;99.90
21563;DHT22;10942;47.894;11.424;2023-04-24T03:00:39;9.80;99.90
21563;DHT22;10942;47.894;11.424;2023-04-24T03:03:05;9.90;99.90
21563;DHT22;10942;47.894;11.424;2023-04-24T03:05:31;9.90;99.90
21563;DHT22;10942;47.894;11.424;2023-04-24T03:07:56;9.90;99.90
21563;DHT22;10942;47.894;11.424;2023-04-24T03:10:22;9.80;99.90
21563;DHT22;10942;47.894;11.424;2023-04-24T03:12:48;9.90;99.90
21563;DHT22;10942;47.894;11.424;2023-04-24T03:15:14;9.80;99.90
21563;DHT22;10942;47.894;11.424;2023-04-24T03:17:40;9.80;99.90
21563;DHT22;10942;47.894;11.424;2023-04-24T03:20:07;9.80;99.90
21563;DHT22;10942;47.894;11.424;2023-04-24T03:22:34;9.80;99.90
21563;DHT22;10942;47.894;11.424;2023-04-24T03:25:02;9.80;99.90
21563;DHT22;10942;47.894;11.424;2023-04-24T03:27:29;9.80;99.90
21563;DHT22;10942;47.894;11.424;2023-04-24T03:30:00;9.80;99.90
21563;DHT22;10942;47.894;11.424;2023-04-24T03:32:49;9.80;99.90
21563;DHT22;10942;47.894;11.424;2023-04-24T03:35:20;9.80;99.90
21563;DHT22;10942;47.894;11.424;2023-04-24T03:37:48;9.80;99.90
21563;DHT22;10942;47.894;11.424;2023-04-24T03:40:32;9.80;99.90
21563;DHT22;10942;47.894;11.424;2023-04-24T03:42:59;9.80;99.90
21563;DHT22;10942;47.894;11.424;2023-04-24T03:45:26;9.80;99.90
21563;DHT22;10942;47.894;11.424;2023-04-24T03:47:52;9.80;99.90
21563;DHT22;10942;47.894;11.424;2023-04-24T03:50:18;9.80;99.90
21563;DHT22;10942;47.894;11.424;2023-04-24T03:52:44;9.80;99.90
21563;DHT22;10942;47.894;11.424;2023-04-24T03:55:15;9.80;99.90
21563;DHT22;10942;47.894;11.424;2023-04-24T03:57:45;9.80;99.90
21563;DHT22;10942;47.894;11.424;2023-04-24T04:00:19;9.80;99.90
21563;DHT22;10942;47.894;11.424;2023-04-24T04:02:50;9.80;99.90
21563;DHT22;10942;47.894;11.424;2023-04-24T04:05:17;9.70;99.90
21563;DHT22;10942;47.894;11.424;2023-04-24T04:07:42;9.80;99.90
21563;DHT22;10942;47.894;11.424;2023-04-24T04:10:08;9.80;99.90
21563;DHT22;10942;47.894;11.424;2023-04-24T04:12:36;9.80;99.90
21563;DHT22;10942;47.894;11.424;2023-04-24T04:15:02;9.90;99.90
21563;DHT22;10942;47.894;11.424;2023-04-24T04:17:29;9.80;99.90
21563;DHT22;10942;47.894;11.424;2023-04-24T04:19:55;9.80;99.90
21563;DHT22;10942;47.894;11.424;2023-04-24T04:22:22;9.80;99.90
21563;DHT22;10942;47.894;11.424;2023-04-24T04:24:49;9.80;99.90
21563;DHT22;10942;47.894;11.424;2023-04-24T04:27:18;9.80;99.90
21563;DHT22;10942;47.894;11.424;2023-04-24T04:29:51;9.80;99.90
21563;DHT22;10942;47.894;11.424;2023-04-24T04:32:19;9.80;99.90
21563;DHT22;10942;47.894;11.424;2023-04-24T04:34:45;9.70;99.90
21563;DHT22;10942;47.894;11.424;2023-04-24T04:37:15;9.70;99.90
21563;DHT22;10942;47.894;11.424;2023-04-24T04:39:50;9.70;99.90
21563;DHT22;10942;47.894;11.424;2023-04-24T04:42:19;9.70;99.90
21563;DHT22;10942;47.894;11.424;2023-04-24T04:44:45;9.70;99.90
21563;DHT22;10942;47.894;11.424;2023-04-24T04:47:17;9.70;99.90
21563;DHT22;10942;47.894;11.424;2023-04-24T04:49:44;9.70;99.90
21563;DHT22;10942;47.894;11.424;2023-04-24T04:52:17;9.70;99.90
21563;DHT22;10942;47.894;11.424;2023-04-24T04:54:46;9.70;99.90
21563;DHT22;10942;47.894;11.424;2023-04-24T04:57:12;9.70;99.90
21563;DHT22;10942;47.894;11.424;2023-04-24T04:59:39;9.70;99.90
21563;DHT22;10942;47.894;11.424;2023-04-24T05:02:10;9.80;99.90
21563;DHT22;10942;47.894;11.424;2023-04-24T05:04:36;9.80;99.90
21563;DHT22;10942;47.894;11.424;2023-04-24T05:07:02;9.70;99.90
21563;DHT22;10942;47.894;11.424;2023-04-24T05:09:31;9.70;99.90
21563;DHT22;10942;47.894;11.424;2023-04-24T05:12:01;9.70;99.90
21563;DHT22;10942;47.894;11.424;2023-04-24T05:14:30;9.70;99.90
21563;DHT22;10942;47.894;11.424;2023-04-24T05:16:57;9.80;99.90
21563;DHT22;10942;47.894;11.424;2023-04-24T05:19:25;9.80;99.90
21563;DHT22;10942;47.894;11.424;2023-04-24T05:21:50;9.80;99.90
21563;DHT22;10942;47.894;11.424;2023-04-24T05:24:17;9.80;99.90
21563;DHT22;10942;47.894;11.424;2023-04-24T05:27:01;9.80;99.90
21563;DHT22;10942;47.894;11.424;2023-04-24T05:29:33;9.80;99.90
21563;DHT22;10942;47.894;11.424;2023-04-24T05:32:00;9.90;99.90
21563;DHT22;10942;47.894;11.424;2023-04-24T05:34:28;9.90;99.90
21563;DHT22;10942;47.894;11.424;2023-04-24T05:36:55;9.90;99.90
21563;DHT22;10942;47.894;11.424;2023-04-24T05:39:21;9.90;99.90
21563;DHT22;10942;47.894;11.424;2023-04-24T05:41:47;10.00;99.90
21563;DHT22;10942;47.894;11.424;2023-04-24T05:44:12;10.00;99.90
21563;DHT22;10942;47.894;11.424;2023-04-24T05:46:38;10.00;99.90
21563;DHT22;10942;47.894;11.424;2023-04-24T05:49:04;10.10;99.90
21563;DHT22;10942;47.894;11.424;2023-04-24T05:51:31;10.20;99.90
21563;DHT22;10942;47.894;11.424;2023-04-24T05:53:58;10.30;99.90
21563;DHT22;10942;47.894;11.424;2023-04-24T05:56:25;10.30;99.90
21563;DHT22;10942;47.894;11.424;2023-04-24T05:58:51;10.30;99.90
21563;DHT22;10942;47.894;11.424;2023-04-24T06:01:16;10.30;99.90
21563;DHT22;10942;47.894;11.424;2023-04-24T06:03:46;10.30;99.90
21563;DHT22;10942;47.894;11.424;2023-04-24T06:06:11;10.30;99.90
21563;DHT22;10942;47.894;11.424;2023-04-24T06:08:37;10.40;99.90
21563;DHT22;10942;47.894;11.424;2023-04-24T06:11:03;10.30;99.90
21563;DHT22;10942;47.894;11.424;2023-04-24T06:13:29;10.40;99.90
21563;DHT22;10942;47.894;11.424;2023-04-24T06:16:13;10.40;99.90
21563;DHT22;10942;47.894;11.424;2023-04-24T06:18:44;10.50;99.90
21563;DHT22;10942;47.894;11.424;2023-04-24T06:21:13;10.50;99.90
21563;DHT22;10942;47.894;11.424;2023-04-24T06:23:38;10.60;99.90
21563;DHT22;10942;47.894;11.424;2023-04-24T06:26:04;10.70;99.90
21563;DHT22;10942;47.894;11.424;2023-04-24T06:28:31;10.70;99.90
21563;DHT22;10942;47.894;11.424;2023-04-24T06:30:57;10.70;99.90
21563;DHT22;10942;47.894;11.424;2023-04-24T06:33:23;10.70;99.90
21563;DHT22;10942;47.894;11.424;2023-04-24T06:35:48;10.70;99.90
21563;DHT22;10942;47.894;11.424;2023-04-24T06:38:14;10.80;99.90
21563;DHT22;10942;47.894;11.424;2023-04-24T06:40:41;10.70;99.90
21563;DHT22;10942;47.894;11.424;2023-04-24T06:43:07;10.90;99.90
21563;DHT22;10942;47.894;11.424;2023-04-24T06:45:32;10.80;99.90
21563;DHT22;10942;47.894;11.424;2023-04-24T06:47:58;10.90;99.90
21563;DHT22;10942;47.894;11.424;2023-04-24T06:50:24;11.00;99.90
21563;DHT22;10942;47.894;11.424;2023-04-24T06:52:49;11.10;99.90
21563;DHT22;10942;47.894;11.424;2023-04-24T06:55:15;11.10;99.90
21563;DHT22;10942;47.894;11.424;2023-04-24T06:57:42;11.00;99.90
21563;DHT22;10942;47.894;11.424;2023-04-24T07:00:09;11.10;99.90
21563;DHT22;10942;47.894;11.424;2023-04-24T07:02:35;11.20;99.90
21563;DHT22;10942;47.894;11.424;2023-04-24T07:05:01;11.20;99.90
21563;DHT22;10942;47.894;11.424;2023-04-24T07:07:27;11.30;99.90
21563;DHT22;10942;47.894;11.424;2023-04-24T07:09:53;11.30;99.90
21563;DHT22;10942;47.894;11.424;2023-04-24T07:12:19;11.50;99.90
21563;DHT22;10942;47.894;11.424;2023-04-24T07:14:47;11.60;99.90
21563;DHT22;10942;47.894;11.424;2023-04-24T07:17:13;11.70;99.90
21563;DHT22;10942;47.894;11.424;2023-04-24T07:19:39;11.80;99.90
21563;DHT22;10942;47.894;11.424;2023-04-24T07:22:04;11.90;99.90
21563;DHT22;10942;47.894;11.424;2023-04-24T07:24:31;11.90;99.90
21563;DHT22;10942;47.894;11.424;2023-04-24T07:26:58;11.90;99.90
21563;DHT22;10942;47.894;11.424;2023-04-24T07:29:24;11.90;99.90
21563;DHT22;10942;47.894;11.424;2023-04-24T07:31:50;12.00;99.90
21563;DHT22;10942;47.894;11.424;2023-04-24T07:34:16;12.00;99.90
21563;DHT22;10942;47.894;11.424;2023-04-24T07:36:42;12.10;99.90
21563;DHT22;10942;47.894;11.424;2023-04-24T07:39:07;12.30;99.90
21563;DHT22;10942;47.894;11.424;2023-04-24T07:41:33;12.30;99.90
21563;DHT22;10942;47.894;11.424;2023-04-24T07:43:59;12.30;99.90
21563;DHT22;10942;47.894;11.424;2023-04-24T07:46:25;12.40;99.90
21563;DHT22;10942;47.894;11.424;2023-04-24T07:48:51;12.20;99.90
21563;DHT22;10942;47.894;11.424;2023-04-24T07:51:17;12.00;99.90
21563;DHT22;10942;47.894;11.424;2023-04-24T07:53:43;11.90;99.90
21563;DHT22;10942;47.894;11.424;2023-04-24T07:56:09;11.90;99.90
21563;DHT22;10942;47.894;11.424;2023-04-24T07:58:35;11.70;99.90
21563;DHT22;10942;47.894;11.424;2023-04-24T08:01:01;11.80;99.90
21563;DHT22;10942;47.894;11.424;2023-04-24T08:03:26;11.50;99.90
21563;DHT22;10942;47.894;11.424;2023-04-24T08:05:52;11.50;99.90
21563;DHT22;10942;47.894;11.424;2023-04-24T08:08:20;11.50;99.90
21563;DHT22;10942;47.894;11.424;2023-04-24T08:10:46;11.50;99.90
21563;DHT22;10942;47.894;11.424;2023-04-24T08:13:12;11.40;99.90
21563;DHT22;10942;47.894;11.424;2023-04-24T08:15:38;11.30;99.90
21563;DHT22;10942;47.894;11.424;2023-04-24T08:18:03;11.30;99.90
21563;DHT22;10942;47.894;11.424;2023-04-24T08:20:29;11.10;99.90
21563;DHT22;10942;47.894;11.424;2023-04-24T08:22:55;11.10;99.90
21563;DHT22;10942;47.894;11.424;2023-04-24T08:25:22;11.00;99.90
21563;DHT22;10942;47.894;11.424;2023-04-24T08:27:49;10.90;99.90
21563;DHT22;10942;47.894;11.424;2023-04-24T08:30:14;10.80;99.90
21563;DHT22;10942;47.894;11.424;2023-04-24T08:32:40;11.10;99.90
21563;DHT22;10942;47.894;11.424;2023-04-24T08:35:06;11.30;99.90
21563;DHT22;10942;47.894;11.424;2023-04-24T08:37:34;11.50;99.90
21563;DHT22;10942;47.894;11.424;2023-04-24T08:40:01;11.40;99.90
21563;DHT22;10942;47.894;11.424;2023-04-24T08:42:28;11.30;99.90
21563;DHT22;10942;47.894;11.424;2023-04-24T08:44:57;11.30;99.90
21563;DHT22;10942;47.894;11.424;2023-04-24T08:47:23;11.40;99.90
21563;DHT22;10942;47.894;11.424;2023-04-24T08:49:51;11.50;99.90
21563;DHT22;10942;47.894;11.424;2023-04-24T08:52:18;11.40;99.90
21563;DHT22;10942;47.894;11.424;2023-04-24T08:54:45;11.30;99.90
21563;DHT22;10942;47.894;11.424;2023-04-24T08:57:14;11.40;99.90
21563;DHT22;10942;47.894;11.424;2023-04-24T08:59:40;11.30;99.90
21563;DHT22;10942;47.894;11.424;2023-04-24T09:02:09;11.20;99.90
21563;DHT22;10942;47.894;11.424;2023-04-24T09:04:36;10.80;99.90
21563;DHT22;10942;47.894;11.424;2023-04-24T09:07:03;10.80;99.90
21563;DHT22;10942;47.894;11.424;2023-04-24T09:09:30;10.90;99.90
21563;DHT22;10942;47.894;11.424;2023-04-24T09:11:58;10.90;99.90
21563;DHT22;10942;47.894;11.424;2023-04-24T09:14:24;11.10;99.90
21563;DHT22;10942;47.894;11.424;2023-04-24T09:16:50;11.30;99.90
21563;DHT22;10942;47.894;11.424;2023-04-24T09:19:16;11.50;99.90
21563;DHT22;10942;47.894;11.424;2023-04-24T09:21:45;11.90;99.90
21563;DHT22;10942;47.894;11.424;2023-04-24T09:24:19;12.20;99.90
21563;DHT22;10942;47.894;11.424;2023-04-24T09:26:48;12.60;99.90
21563;DHT22;10942;47.894;11.424;2023-04-24T09:29:18;12.80;99.90
21563;DHT22;10942;47.894;11.424;2023-04-24T09:31:45;12.80;99.90
21563;DHT22;10942;47.894;11.424;2023-04-24T09:34:11;12.90;99.90
21563;DHT22;10942;47.894;11.424;2023-04-24T09:36:39;12.80;99.90
21563;DHT22;10942;47.894;11.424;2023-04-24T09:39:13;12.50;99.90
21563;DHT22;10942;47.894;11.424;2023-04-24T09:41:50;12.20;99.90
21563;DHT22;10942;47.894;11.424;2023-04-24T09:44:27;11.90;99.90
21563;DHT22;10942;47.894;11.424;2023-04-24T09:46:58;11.70;99.90
21563;DHT22;10942;47.894;11.424;2023-04-24T09:49:26;11.60;99.90
21563;DHT22;10942;47.894;11.424;2023-04-24T09:52:02;11.60;99.90
21563;DHT22;10942;47.894;11.424;2023-04-24T09:54:28;11.80;99.90
21563;DHT22;10942;47.894;11.424;2023-04-24T09:56:55;12.30;99.90
21563;DHT22;10942;47.894;11.424;2023-04-24T09:59:22;12.70;99.90
21563;DHT22;10942;47.894;11.424;2023-04-24T10:01:48;13.00;99.90
21563;DHT22;10942;47.894;11.424;2023-04-24T10:04:28;13.30;99.90
21563;DHT22;10942;47.894;11.424;2023-04-24T10:06:55;13.10;99.90
21563;DHT22;10942;47.894;11.424;2023-04-24T10:09:24;13.20;99.90
21563;DHT22;10942;47.894;11.424;2023-04-24T10:11:52;13.30;99.90
21563;DHT22;10942;47.894;11.424;2023-04-24T10:14:21;13.40;99.90
21563;DHT22;10942;47.894;11.424;2023-04-24T10:16:47;13.20;99.90
21563;DHT22;10942;47.894;11.424;2023-04-24T10:19:15;13.40;99.90
21563;DHT22;10942;47.894;11.424;2023-04-24T10:21:42;13.30;99.90
21563;DHT22;10942;47.894;11.424;2023-04-24T10:24:13;13.20;99.90
21563;DHT22;10942;47.894;11.424;2023-04-24T10:26:40;13.40;99.90
21563;DHT22;10942;47.894;11.424;2023-04-24T10:29:06;13.20;99.90
21563;DHT22;10942;47.894;11.424;2023-04-24T10:31:36;13.50;99.90
21563;DHT22;10942;47.894;11.424;2023-04-24T10:34:04;13.70;99.90
21563;DHT22;10942;47.894;11.424;2023-04-24T10:36:31;14.00;99.90
21563;DHT22;10942;47.894;11.424;2023-04-24T10:39:00;14.10;99.90
21563;DHT22;10942;47.894;11.424;2023-04-24T10:41:26;14.10;99.90
21563;DHT22;10942;47.894;11.424;2023-04-24T10:44:09;14.00;99.90
21563;DHT22;10942;47.894;11.424;2023-04-24T10:46:36;14.00;99.90
21563;DHT22;10942;47.894;11.424;2023-04-24T10:49:05;13.70;99.90
21563;DHT22;10942;47.894;11.424;2023-04-24T10:51:50;13.30;99.90
21563;DHT22;10942;47.894;11.424;2023-04-24T10:54:29;13.20;99.90
21563;DHT22;10942;47.894;11.424;2023-04-24T10:59:43;13.10;99.90
21563;DHT22;10942;47.894;11.424;2023-04-24T11:02:09;13.30;99.90
21563;DHT22;10942;47.894;11.424;2023-04-24T11:04:35;13.30;99.90
21563;DHT22;10942;47.894;11.424;2023-04-24T11:07:04;13.30;99.90
21563;DHT22;10942;47.894;11.424;2023-04-24T11:09:31;13.20;99.90
21563;DHT22;10942;47.894;11.424;2023-04-24T11:12:08;13.10;99.90
21563;DHT22;10942;47.894;11.424;2023-04-24T11:17:34;12.50;99.90
21563;DHT22;10942;47.894;11.424;2023-04-24T11:20:04;12.10;99.90
21563;DHT22;10942;47.894;11.424;2023-04-24T11:22:34;11.80;99.90
21563;DHT22;10942;47.894;11.424;2023-04-24T11:25:03;11.60;99.90
21563;DHT22;10942;47.894;11.424;2023-04-24T11:27:32;11.80;99.90
21563;DHT22;10942;47.894;11.424;2023-04-24T11:30:03;12.20;99.90
21563;DHT22;10942;47.894;11.424;2023-04-24T11:37:37;12.90;99.90
21563;DHT22;10942;47.894;11.424;2023-04-24T11:40:05;13.20;99.90
21563;DHT22;10942;47.894;11.424;2023-04-24T11:42:42;13.50;99.90
21563;DHT22;10942;47.894;11.424;2023-04-24T11:45:09;13.70;99.90
21563;DHT22;10942;47.894;11.424;2023-04-24T11:47:36;13.70;99.90
21563;DHT22;10942;47.894;11.424;2023-04-24T11:50:07;13.70;99.90
21563;DHT22;10942;47.894;11.424;2023-04-24T11:52:37;13.80;99.90
21563;DHT22;10942;47.894;11.424;2023-04-24T11:55:03;13.90;99.90
21563;DHT22;10942;47.894;11.424;2023-04-24T11:57:30;13.90;99.90
21563;DHT22;10942;47.894;11.424;2023-04-24T12:00:01;14.10;99.90
21563;DHT22;10942;47.894;11.424;2023-04-24T12:02:27;14.40;99.90
21563;DHT22;10942;47.894;11.424;2023-04-24T12:04:53;14.40;99.90
21563;DHT22;10942;47.894;11.424;2023-04-24T12:07:19;14.50;99.90
21563;DHT22;10942;47.894;11.424;2023-04-24T12:09:57;14.60;99.90
21563;DHT22;10942;47.894;11.424;2023-04-24T12:12:25;14.60;99.90
21563;DHT22;10942;47.894;11.424;2023-04-24T12:14:56;14.60;99.90
21563;DHT22;10942;47.894;11.424;2023-04-24T12:17:30;14.60;99.90
21563;DHT22;10942;47.894;11.424;2023-04-24T12:20:02;14.60;99.90
21563;DHT22;10942;47.894;11.424;2023-04-24T12:22:48;14.60;99.90
21563;DHT22;10942;47.894;11.424;2023-04-24T12:25:16;14.70;99.90
21563;DHT22;10942;47.894;11.424;2023-04-24T12:27:42;14.80;99.90
21563;DHT22;10942;47.894;11.424;2023-04-24T12:30:14;14.70;99.90
21563;DHT22;10942;47.894;11.424;2023-04-24T12:32:48;14.80;99.90
21563;DHT22;10942;47.894;11.424;2023-04-24T12:35:19;14.60;99.90
21563;DHT22;10942;47.894;11.424;2023-04-24T12:37:49;14.60;99.90
21563;DHT22;10942;47.894;11.424;2023-04-24T12:40:15;14.60;99.90
21563;DHT22;10942;47.894;11.424;2023-04-24T12:42:49;14.60;99.90
21563;DHT22;10942;47.894;11.424;2023-04-24T12:45:16;14.70;99.90
21563;DHT22;10942;47.894;11.424;2023-04-24T12:47:43;14.00;99.90
21563;DHT22;10942;47.894;11.424;2023-04-24T12:50:11;13.10;99.90
21563;DHT22;10942;47.894;11.424;2023-04-24T12:52:37;12.20;99.90
21563;DHT22;10942;47.894;11.424;2023-04-24T12:55:05;12.00;99.90
21563;DHT22;10942;47.894;11.424;2023-04-24T12:57:42;11.60;99.90
21563;DHT22;10942;47.894;11.424;2023-04-24T13:00:08;11.50;99.90
21563;DHT22;10942;47.894;11.424;2023-04-24T13:02:34;11.60;99.90
21563;DHT22;10942;47.894;11.424;2023-04-24T13:05:00;11.70;99.90
21563;DHT22;10942;47.894;11.424;2023-04-24T13:07:27;11.90;99.90
21563;DHT22;10942;47.894;11.424;2023-04-24T13:09:55;12.20;99.90
21563;DHT22;10942;47.894;11.424;2023-04-24T13:12:22;12.50;99.90
21563;DHT22;10942;47.894;11.424;2023-04-24T13:14:49;12.20;99.90
21563;DHT22;10942;47.894;11.424;2023-04-24T13:17:15;12.20;99.90
21563;DHT22;10942;47.894;11.424;2023-04-24T13:19:43;12.20;99.90
21563;DHT22;10942;47.894;11.424;2023-04-24T13:22:12;12.30;99.90
21563;DHT22;10942;47.894;11.424;2023-04-24T13:24:39;12.10;99.90
21563;DHT22;10942;47.894;11.424;2023-04-24T13:27:08;12.30;99.90
21563;DHT22;10942;47.894;11.424;2023-04-24T13:29:34;12.30;99.90
21563;DHT22;10942;47.894;11.424;2023-04-24T13:32:00;12.50;99.90
21563;DHT22;10942;47.894;11.424;2023-04-24T13:34:27;12.80;99.90
21563;DHT22;10942;47.894;11.424;2023-04-24T13:36:54;12.90;99.90
21563;DHT22;10942;47.894;11.424;2023-04-24T13:39:21;12.80;99.90
21563;DHT22;10942;47.894;11.424;2023-04-24T13:41:47;13.00;99.90
21563;DHT22;10942;47.894;11.424;2023-04-24T13:44:14;13.20;99.90
21563;DHT22;10942;47.894;11.424;2023-04-24T13:46:41;13.30;99.90
21563;DHT22;10942;47.894;11.424;2023-04-24T13:49:07;13.40;99.90
21563;DHT22;10942;47.894;11.424;2023-04-24T13:51:33;13.60;99.90
21563;DHT22;10942;47.894;11.424;2023-04-24T13:53:59;13.70;99.90
21563;DHT22;10942;47.894;11.424;2023-04-24T13:56:25;13.80;99.90
21563;DHT22;10942;47.894;11.424;2023-04-24T13:58:51;14.00;99.90
21563;DHT22;10942;47.894;11.424;2023-04-24T14:01:17;14.00;99.90
21563;DHT22;10942;47.894;11.424;2023-04-24T14:03:43;14.00;99.90
21563;DHT22;10942;47.894;11.424;2023-04-24T14:06:11;13.90;99.90
21563;DHT22;10942;47.894;11.424;2023-04-24T14:08:37;13.80;99.90
21563;DHT22;10942;47.894;11.424;2023-04-24T14:11:03;13.60;99.90
21563;DHT22;10942;47.894;11.424;2023-04-24T14:13:29;13.20;99.90
21563;DHT22;10942;47.894;11.424;2023-04-24T14:15:55;12.90;99.90
21563;DHT22;10942;47.894;11.424;2023-04-24T14:18:20;12.50;99.90
21563;DHT22;10942;47.894;11.424;2023-04-24T14:20:46;12.50;99.90
21563;DHT22;10942;47.894;11.424;2023-04-24T14:23:12;12.40;99.90
21563;DHT22;10942;47.894;11.424;2023-04-24T14:25:37;12.30;99.90
21563;DHT22;10942;47.894;11.424;2023-04-24T14:28:03;12.30;99.90
21563;DHT22;10942;47.894;11.424;2023-04-24T14:30:29;12.50;99.90
21563;DHT22;10942;47.894;11.424;2023-04-24T14:32:55;12.50;99.90
21563;DHT22;10942;47.894;11.424;2023-04-24T14:35:21;12.60;99.90
21563;DHT22;10942;47.894;11.424;2023-04-24T14:37:47;12.80;99.90
21563;DHT22;10942;47.894;11.424;2023-04-24T14:40:13;12.90;99.90
21563;DHT22;10942;47.894;11.424;2023-04-24T14:42:40;12.90;99.90
21563;DHT22;10942;47.894;11.424;2023-04-24T14:45:06;13.10;99.90
21563;DHT22;10942;47.894;11.424;2023-04-24T14:47:33;13.20;99.90
21563;DHT22;10942;47.894;11.424;2023-04-24T14:49:58;13.30;99.90
21563;DHT22;10942;47.894;11.424;2023-04-24T14:52:24;13.40;99.90
21563;DHT22;10942;47.894;11.424;2023-04-24T14:54:50;13.60;99.90
21563;DHT22;10942;47.894;11.424;2023-04-24T14:57:16;13.30;99.90
21563;DHT22;10942;47.894;11.424;2023-04-24T14:59:42;13.20;99.90
21563;DHT22;10942;47.894;11.424;2023-04-24T15:02:07;13.20;99.90
21563;DHT22;10942;47.894;11.424;2023-04-24T15:04:33;13.10;99.90
21563;DHT22;10942;47.894;11.424;2023-04-24T15:06:59;13.20;99.90
21563;DHT22;10942;47.894;11.424;2023-04-24T15:09:25;13.30;99.90
21563;DHT22;10942;47.894;11.424;2023-04-24T15:11:51;13.50;99.90
21563;DHT22;10942;47.894;11.424;2023-04-24T15:14:18;13.40;99.90
21563;DHT22;10942;47.894;11.424;2023-04-24T15:16:44;13.40;99.90
21563;DHT22;10942;47.894;11.424;2023-04-24T15:19:10;13.20;99.90
21563;DHT22;10942;47.894;11.424;2023-04-24T15:21:37;13.20;99.90
21563;DHT22;10942;47.894;11.424;2023-04-24T15:24:04;13.10;99.90
21563;DHT22;10942;47.894;11.424;2023-04-24T15:26:29;12.90;99.90
21563;DHT22;10942;47.894;11.424;2023-04-24T15:28:55;12.90;99.90
21563;DHT22;10942;47.894;11.424;2023-04-24T15:31:21;13.00;99.90
21563;DHT22;10942;47.894;11.424;2023-04-24T15:33:48;13.00;99.90
21563;DHT22;10942;47.894;11.424;2023-04-24T15:36:15;13.00;99.90
21563;DHT22;10942;47.894;11.424;2023-04-24T15:38:42;13.00;99.90